Lucile, Idaho
Current Conditions -  °F | °C
As of 10:15 PM on Saturday 20 Dec 2014 (Local Time) from KGIC Reporting Station
Overcast Overcast  
Wind Chill: 30°   Ceiling: 5000
Heat Index: 41°   Visibility: 10mi
Dew Point: 34°   Wind: 32mph
Humidity: 74%   Direction: 200°SSW
Pressure: 29.65"   Gusts: 45mph
Location:  45.53°N, 116.31°W
Report Text: KGIC 210515Z AUTO 20028G39KT 10SM SCT043 OVC050 05/01 A2965 RMK AO1 T00520010
Loading
Personal Weather Stations






























Interactive Weather Map New forecast layout! Learn more

10-Day Weather Forecast

Advertisements
Track Severe Weather on mobile